createdAt,value
2019-04-22T00:00:50.125Z,22.42
2019-04-22T00:02:01.080Z,19.45
2019-04-22T00:03:05.211Z,18.45
2019-04-22T00:04:15.563Z,19.87
2019-04-22T00:05:37.718Z,21.48
2019-04-22T00:06:48.401Z,20.20
2019-04-22T00:08:00.361Z,22.42
2019-04-22T00:09:02.281Z,16.80
2019-04-22T00:10:11.795Z,16.95
2019-04-22T00:11:26.113Z,18.75
2019-04-22T00:12:29.272Z,23.60
2019-04-22T00:13:40.797Z,21.48
2019-04-22T00:14:38.745Z,16.93
2019-04-22T00:15:42.411Z,18.00
2019-04-22T00:16:53.499Z,20.08
2019-04-22T00:19:15.328Z,14.85
2019-04-22T00:20:18.519Z,20.15
2019-04-22T00:21:25.744Z,18.80
2019-04-22T00:22:32.118Z,24.57
2019-04-22T00:23:41.868Z,19.12
2019-04-22T00:24:46.096Z,19.95
2019-04-22T00:25:55.838Z,19.27
2019-04-22T00:27:03.928Z,18.17
2019-04-22T00:28:08.882Z,17.48
2019-04-22T00:29:39.434Z,17.20
2019-04-22T00:30:36.070Z,22.13
2019-04-22T00:31:47.974Z,23.18
2019-04-22T00:33:13.327Z,16.57
2019-04-22T00:34:25.485Z,17.70
2019-04-22T00:35:30.535Z,17.02
2019-04-22T00:36:36.597Z,18.25
2019-04-22T00:37:54.069Z,18.45
2019-04-22T00:38:59.258Z,17.57
2019-04-22T00:39:57.604Z,17.23
2019-04-22T00:41:05.513Z,19.92
2019-04-22T00:42:18.099Z,18.10
2019-04-22T00:44:40.320Z,15.88
2019-04-22T00:45:43.158Z,17.20
2019-04-22T00:46:52.658Z,19.10
2019-04-22T00:47:55.115Z,14.47
2019-04-22T00:49:49.075Z,20.40
2019-04-22T00:50:25.481Z,19.77
2019-04-22T00:51:36.596Z,16.25
2019-04-22T00:52:21.926Z,15.68
2019-04-22T00:53:37.126Z,17.92
2019-04-22T00:54:49.559Z,13.45
2019-04-22T00:56:00.556Z,14.43
2019-04-22T00:57:09.171Z,13.32
2019-04-22T00:58:16.217Z,15.13
2019-04-22T00:59:23.427Z,16.82
2019-04-22T01:00:33.848Z,17.62
2019-04-22T01:01:39.780Z,17.62
2019-04-22T01:02:49.574Z,20.80
2019-04-22T01:03:56.006Z,16.97
2019-04-22T01:05:05.509Z,15.23
2019-04-22T01:06:07.763Z,16.80
2019-04-22T01:07:11.841Z,17.25
2019-04-22T01:08:23.865Z,14.85
2019-04-22T01:09:31.317Z,16.10
2019-04-22T01:10:39.080Z,18.92
2019-04-22T01:11:37.605Z,18.77
2019-04-22T01:12:54.571Z,18.40
2019-04-22T01:13:55.830Z,17.20
2019-04-22T01:15:09.488Z,15.68
2019-04-22T01:16:13.899Z,16.57
2019-04-22T01:17:19.349Z,19.32
2019-04-22T01:18:23.916Z,15.75
2019-04-22T01:19:38.685Z,15.18
2019-04-22T01:21:00.892Z,15.88
2019-04-22T01:21:43.643Z,12.30
2019-04-22T01:22:52.203Z,16.48
2019-04-22T01:23:59.712Z,13.93
2019-04-22T01:25:08.019Z,15.70
2019-04-22T01:26:09.506Z,14.90
2019-04-22T01:27:20.474Z,16.20
2019-04-22T01:28:27.934Z,22.77
2019-04-22T01:29:31.754Z,16.87
2019-04-22T01:30:38.573Z,16.85
2019-04-22T01:31:39.902Z,17.00
2019-04-22T01:32:47.235Z,15.40
2019-04-22T01:34:08.274Z,16.45
2019-04-22T01:35:15.587Z,15.25
2019-04-22T01:36:25.917Z,18.92
2019-04-22T01:37:28.750Z,18.35
2019-04-22T01:38:46.404Z,18.77
2019-04-22T01:39:50.358Z,18.48
2019-04-22T01:41:05.013Z,15.00
2019-04-22T01:42:16.828Z,15.85
2019-04-22T01:43:18.545Z,18.25
2019-04-22T01:44:31.391Z,18.67
2019-04-22T01:45:32.561Z,15.88
2019-04-22T01:46:36.929Z,15.38
2019-04-22T01:47:46.160Z,17.25
2019-04-22T01:48:54.335Z,13.90
2019-04-22T01:49:52.678Z,17.82
2019-04-22T01:51:00.822Z,19.60
2019-04-22T01:52:11.474Z,16.25
2019-04-22T01:53:24.549Z,14.93
2019-04-22T01:54:29.777Z,17.10
2019-04-22T01:55:31.325Z,17.37
2019-04-22T01:56:44.907Z,21.07
2019-04-22T01:57:42.960Z,15.00
2019-04-22T01:58:44.182Z,22.85
2019-04-22T01:59:51.978Z,16.35
2019-04-22T02:01:09.555Z,15.80
2019-04-22T02:02:16.201Z,16.87
2019-04-22T02:04:31.839Z,19.20
2019-04-22T02:05:50.467Z,14.90
2019-04-22T02:06:43.983Z,19.23
2019-04-22T02:07:50.208Z,15.35
2019-04-22T02:09:04.117Z,17.55
2019-04-22T02:10:02.409Z,13.90
2019-04-22T02:11:07.726Z,21.27
2019-04-22T02:13:23.737Z,15.63
2019-04-22T02:14:33.002Z,17.07
2019-04-22T02:15:39.959Z,17.07
2019-04-22T02:16:51.524Z,15.85
2019-04-22T02:17:56.856Z,14.40
2019-04-22T02:19:07.643Z,13.68
2019-04-22T02:20:12.010Z,15.35
2019-04-22T02:21:10.651Z,21.10
2019-04-22T02:22:29.044Z,14.80
2019-04-22T02:23:47.855Z,15.15
2019-04-22T02:25:50.995Z,16.30
2019-04-22T02:26:48.248Z,23.65
2019-04-22T02:28:05.437Z,14.40
2019-04-22T02:29:11.033Z,16.25
2019-04-22T02:30:16.384Z,14.55
2019-04-22T02:31:44.485Z,16.40
2019-04-22T02:34:58.153Z,15.72
2019-04-22T02:36:20.127Z,16.70
2019-04-22T02:37:03.308Z,14.85
2019-04-22T02:38:19.642Z,15.50
2019-04-22T02:39:19.922Z,18.20
2019-04-22T02:40:34.712Z,14.93
2019-04-22T02:41:31.032Z,15.72
2019-04-22T02:42:35.160Z,14.90
2019-04-22T02:49:25.058Z,16.80
2019-04-22T02:50:34.545Z,16.30
2019-04-22T02:52:42.682Z,14.05
2019-04-22T02:54:27.108Z,21.17
2019-04-22T02:55:03.052Z,24.18
2019-04-22T02:57:28.014Z,16.62
2019-04-22T02:58:35.700Z,13.62
2019-04-22T02:59:34.453Z,16.30
2019-04-22T03:00:37.864Z,15.83
2019-04-22T03:01:41.268Z,12.98
2019-04-22T03:03:03.908Z,13.32
2019-04-22T03:07:18.599Z,16.37
2019-04-22T03:08:36.725Z,15.72
2019-04-22T03:10:57.046Z,13.50
2019-04-22T03:11:59.204Z,15.93
2019-04-22T03:13:00.916Z,15.38
2019-04-22T03:15:07.960Z,15.63
2019-04-22T03:17:35.965Z,16.00
2019-04-22T03:18:39.378Z,19.00
2019-04-22T03:23:16.954Z,13.20
2019-04-22T03:25:51.787Z,13.62
2019-04-22T03:26:39.053Z,13.75
2019-04-22T03:28:46.276Z,13.98
2019-04-22T03:36:58.111Z,14.28
2019-04-22T03:37:32.128Z,13.60
2019-04-22T03:38:55.231Z,16.00
2019-04-22T03:44:24.833Z,13.72
2019-04-22T03:45:26.480Z,13.00
2019-04-22T03:46:30.320Z,17.10
2019-04-22T03:47:35.972Z,19.40
2019-04-22T03:48:45.799Z,16.37
2019-04-22T03:49:55.876Z,14.35
2019-04-22T03:51:04.706Z,14.93
2019-04-22T03:52:11.277Z,17.30
2019-04-22T03:57:48.922Z,11.55
2019-04-22T03:58:54.037Z,15.50
2019-04-22T04:00:15.100Z,14.78
2019-04-22T04:00:56.024Z,12.95
2019-04-22T04:03:09.768Z,15.35
2019-04-22T04:04:32.906Z,14.47
2019-04-22T04:05:41.848Z,15.83
2019-04-22T04:06:39.978Z,25.92
2019-04-22T04:08:38.901Z,15.08
2019-04-22T04:10:53.228Z,13.65
2019-04-22T04:13:16.821Z,13.43
2019-04-22T04:16:44.928Z,16.23
2019-04-22T04:17:50.141Z,16.80
2019-04-22T04:18:58.311Z,13.43
2019-04-22T04:20:06.478Z,13.85
2019-04-22T04:21:12.635Z,17.37
2019-04-22T04:29:06.444Z,21.85
2019-04-22T04:30:14.020Z,15.38
2019-04-22T04:31:22.411Z,15.53
2019-04-22T04:32:31.033Z,16.85
2019-04-22T04:33:23.273Z,16.90
2019-04-22T04:34:44.156Z,15.68
2019-04-22T04:35:43.756Z,14.58
2019-04-22T04:36:59.999Z,13.88
2019-04-22T04:37:52.515Z,14.63
2019-04-22T04:40:11.637Z,17.07
2019-04-22T04:41:17.642Z,13.32
2019-04-22T04:42:37.176Z,13.15
2019-04-22T04:43:32.811Z,17.02
2019-04-22T04:44:50.770Z,13.85
2019-04-22T04:46:49.778Z,14.95
2019-04-22T04:48:09.234Z,15.58
2019-04-22T04:49:18.744Z,15.28
2019-04-22T04:50:06.882Z,23.25
2019-04-22T04:52:39.296Z,16.30
2019-04-22T04:54:35.549Z,13.93
2019-04-22T04:55:34.874Z,12.70
2019-04-22T04:56:50.331Z,14.23
2019-04-22T04:58:03.470Z,16.30
2019-04-22T04:59:13.342Z,13.22
2019-04-22T05:01:23.197Z,13.22
2019-04-22T05:02:29.099Z,19.80
2019-04-22T05:03:39.918Z,17.05
2019-04-22T05:05:00.174Z,16.60
2019-04-22T05:05:54.703Z,14.98
2019-04-22T05:06:59.551Z,13.78
2019-04-22T05:09:14.728Z,20.65
2019-04-22T05:11:32.227Z,13.60
2019-04-22T05:12:53.003Z,13.65
2019-04-22T05:13:49.667Z,17.02
2019-04-22T05:14:38.501Z,15.90
2019-04-22T05:15:59.733Z,14.03
2019-04-22T05:16:54.154Z,13.68
2019-04-22T05:20:26.971Z,15.48
2019-04-22T05:21:34.534Z,14.33
2019-04-22T05:23:38.732Z,17.55
2019-04-22T05:24:47.839Z,14.28
2019-04-22T05:25:51.323Z,17.62
2019-04-22T05:26:57.027Z,17.98
2019-04-22T05:27:57.674Z,14.33
2019-04-22T05:29:15.044Z,19.23
2019-04-22T05:31:21.265Z,17.12
2019-04-22T05:33:42.483Z,13.53
2019-04-22T05:34:48.128Z,13.28
2019-04-22T05:35:53.671Z,14.38
2019-04-22T05:37:00.888Z,14.23
2019-04-22T05:38:17.114Z,15.20
2019-04-22T05:39:18.512Z,15.18
2019-04-22T05:40:26.283Z,17.02
2019-04-22T05:41:30.577Z,12.35
2019-04-22T05:42:39.488Z,12.93
2019-04-22T05:43:40.803Z,17.17
2019-04-22T05:45:05.505Z,13.93
2019-04-22T05:45:58.936Z,13.28
2019-04-22T05:47:08.583Z,14.40
2019-04-22T05:48:13.666Z,15.90
2019-04-22T05:50:25.021Z,12.43
2019-04-22T05:51:37.033Z,15.68
2019-04-22T05:52:48.468Z,14.90
2019-04-22T05:53:53.891Z,16.67
2019-04-22T05:55:02.001Z,13.62
2019-04-22T05:56:13.985Z,14.73
2019-04-22T05:57:17.953Z,13.75
2019-04-22T05:58:24.411Z,17.92
2019-04-22T05:59:34.437Z,13.83
2019-04-22T06:01:07.205Z,18.95
2019-04-22T06:01:51.521Z,12.33
2019-04-22T06:05:10.097Z,14.30
2019-04-22T06:06:15.183Z,15.20
2019-04-22T06:07:25.344Z,17.15
2019-04-22T06:08:24.035Z,13.55
2019-04-22T06:09:36.810Z,10.70
2019-04-22T06:10:50.415Z,13.10
2019-04-22T06:11:36.205Z,14.15
2019-04-22T06:12:59.228Z,13.10
2019-04-22T06:14:04.252Z,12.10
2019-04-22T06:15:13.971Z,12.55
2019-04-22T06:16:20.581Z,14.90
2019-04-22T06:17:33.807Z,12.23
2019-04-22T06:18:33.270Z,13.30
2019-04-22T06:19:44.654Z,11.90
2019-04-22T06:21:03.962Z,15.18
2019-04-22T06:21:55.787Z,18.95
2019-04-22T06:24:16.739Z,14.50
2019-04-22T06:25:27.641Z,11.70
2019-04-22T06:27:35.359Z,11.75
2019-04-22T06:28:40.632Z,12.25
2019-04-22T06:29:41.448Z,11.78
2019-04-22T06:30:57.602Z,10.13
2019-04-22T06:33:14.840Z,13.20
2019-04-22T06:34:17.879Z,13.30
2019-04-22T06:35:32.515Z,12.45
2019-04-22T06:36:33.488Z,12.18
2019-04-22T06:37:46.004Z,13.55
2019-04-22T06:38:43.114Z,11.55
2019-04-22T06:40:06.168Z,11.33
2019-04-22T06:41:04.493Z,14.93
2019-04-22T06:42:07.948Z,11.57
2019-04-22T06:43:22.139Z,13.18
2019-04-22T06:45:24.117Z,13.13
2019-04-22T06:46:36.711Z,14.10
2019-04-22T06:47:51.198Z,9.95
2019-04-22T06:48:39.815Z,9.70
2019-04-22T06:49:55.576Z,15.32
2019-04-22T06:51:00.108Z,10.08
2019-04-22T06:52:14.189Z,9.13
2019-04-22T06:53:17.212Z,11.80
2019-04-22T06:54:21.614Z,9.50
2019-04-22T06:56:35.324Z,11.70
2019-04-22T06:57:44.829Z,10.28
2019-04-22T06:59:08.530Z,10.28
2019-04-22T06:59:58.780Z,10.18
2019-04-22T07:01:04.362Z,17.27
2019-04-22T07:02:20.594Z,12.82
2019-04-22T07:03:34.798Z,10.13
2019-04-22T07:04:23.357Z,14.68
2019-04-22T07:05:32.797Z,14.00
2019-04-22T07:06:42.165Z,14.85
2019-04-22T07:07:52.153Z,13.25
2019-04-22T07:10:09.633Z,13.43
2019-04-22T07:11:04.868Z,9.25
2019-04-22T07:12:20.780Z,12.53
2019-04-22T07:14:28.633Z,8.33
2019-04-22T07:15:46.252Z,13.65
2019-04-22T07:16:43.491Z,13.20
2019-04-22T07:17:58.519Z,12.58
2019-04-22T07:18:54.488Z,12.28
2019-04-22T07:20:04.398Z,10.75
2019-04-22T07:21:27.716Z,12.10
2019-04-22T07:24:40.449Z,13.62
2019-04-22T07:25:41.274Z,13.03
2019-04-22T07:26:54.534Z,9.65
2019-04-22T07:28:15.691Z,10.38
2019-04-22T07:29:06.146Z,12.35
2019-04-22T07:30:20.631Z,11.25
2019-04-22T07:31:16.173Z,12.88
2019-04-22T07:32:49.741Z,10.03
2019-04-22T07:33:34.341Z,9.83
2019-04-22T07:34:41.172Z,13.28
2019-04-22T07:37:57.068Z,12.30
2019-04-22T07:39:08.640Z,11.35
2019-04-22T07:40:11.949Z,12.23
2019-04-22T07:41:20.021Z,11.88
2019-04-22T07:42:32.825Z,15.48
2019-04-22T07:43:53.090Z,11.18
2019-04-22T07:44:48.092Z,13.98
2019-04-22T07:45:49.160Z,13.30
2019-04-22T07:47:07.837Z,12.50
2019-04-22T07:48:13.033Z,13.78
2019-04-22T07:49:10.867Z,11.55
2019-04-22T07:50:25.670Z,12.80
2019-04-22T07:51:30.135Z,11.95
2019-04-22T07:52:33.468Z,12.00
2019-04-22T07:53:37.091Z,10.95
2019-04-22T07:54:47.891Z,14.13
2019-04-22T07:55:55.425Z,10.38
2019-04-22T07:57:13.490Z,10.08
2019-04-22T07:58:16.803Z,12.90
2019-04-22T07:59:18.708Z,14.85
2019-04-22T08:00:22.812Z,11.03
2019-04-22T08:01:26.646Z,12.58
2019-04-22T08:02:39.145Z,10.25
2019-04-22T08:03:51.263Z,10.20
2019-04-22T08:05:03.869Z,9.73
2019-04-22T08:06:04.955Z,13.53
2019-04-22T08:07:03.850Z,9.55
2019-04-22T08:08:17.400Z,11.65
2019-04-22T08:09:20.275Z,10.63
2019-04-22T08:10:35.673Z,11.45
2019-04-22T08:11:43.700Z,11.60
2019-04-22T08:12:39.241Z,10.20
2019-04-22T08:14:01.546Z,10.93
2019-04-22T08:14:53.871Z,10.43
2019-04-22T08:15:59.495Z,9.88
2019-04-22T08:17:36.546Z,10.43
2019-04-22T08:18:28.304Z,11.10
2019-04-22T08:19:20.595Z,13.48
2019-04-22T08:20:28.885Z,9.95
2019-04-22T08:21:30.002Z,14.50
2019-04-22T08:22:43.080Z,10.30
2019-04-22T08:23:55.440Z,9.90
2019-04-22T08:24:56.138Z,12.78
2019-04-22T08:26:00.975Z,10.05
2019-04-22T08:27:10.313Z,10.35
2019-04-22T08:28:24.032Z,9.03
2019-04-22T08:29:28.551Z,9.90
2019-04-22T08:30:47.448Z,9.13
2019-04-22T08:31:40.410Z,12.50
2019-04-22T08:32:45.979Z,8.65
2019-04-22T08:34:00.572Z,9.70
2019-04-22T08:34:55.402Z,10.63
2019-04-22T08:36:10.793Z,9.93
2019-04-22T08:37:41.609Z,13.20
2019-04-22T08:38:28.684Z,9.55
2019-04-22T08:39:25.250Z,10.82
2019-04-22T08:40:41.815Z,14.73
2019-04-22T08:41:37.419Z,9.85
2019-04-22T08:42:55.556Z,9.70
2019-04-22T08:44:11.181Z,11.15
2019-04-22T08:45:09.461Z,14.00
2019-04-22T08:46:20.517Z,11.20
2019-04-22T08:47:27.756Z,12.58
2019-04-22T08:48:29.617Z,10.30
2019-04-22T08:49:40.910Z,11.97
2019-04-22T08:50:39.467Z,8.10
2019-04-22T08:51:42.422Z,9.90
2019-04-22T08:53:00.694Z,8.10
2019-04-22T08:55:12.945Z,8.65
2019-04-22T08:56:23.460Z,11.57
2019-04-22T08:57:33.008Z,9.18
2019-04-22T08:58:27.371Z,7.10
2019-04-22T08:59:37.211Z,9.88
2019-04-22T09:00:49.917Z,8.43
2019-04-22T09:01:41.930Z,9.60
2019-04-22T09:02:59.542Z,8.00
2019-04-22T09:04:02.531Z,7.95
2019-04-22T09:05:22.502Z,8.93
2019-04-22T09:06:34.122Z,6.25
2019-04-22T09:08:34.243Z,8.95
2019-04-22T09:10:50.350Z,9.08
2019-04-22T09:11:54.609Z,8.68
2019-04-22T09:13:00.872Z,13.75
2019-04-22T09:14:14.072Z,11.83
2019-04-22T09:15:10.230Z,11.57
2019-04-22T09:16:28.509Z,8.38
2019-04-22T09:18:34.831Z,6.70
2019-04-22T09:19:40.561Z,10.08
2019-04-22T09:20:49.645Z,10.90
2019-04-22T09:22:00.452Z,7.67
2019-04-22T09:24:10.715Z,9.93
2019-04-22T09:25:16.660Z,6.77
2019-04-22T09:26:23.995Z,10.57
2019-04-22T09:28:44.601Z,11.60
2019-04-22T09:29:53.708Z,6.80
2019-04-22T09:31:01.731Z,7.37
2019-04-22T09:32:14.653Z,8.78
2019-04-22T09:33:14.404Z,7.27
2019-04-22T09:34:17.890Z,7.90
2019-04-22T09:37:56.005Z,8.58
2019-04-22T09:38:46.685Z,10.03
2019-04-22T09:40:03.241Z,7.73
2019-04-22T09:41:05.365Z,9.90
2019-04-22T09:42:14.101Z,8.10
2019-04-22T09:43:18.419Z,9.00
2019-04-22T09:44:28.776Z,10.53
2019-04-22T09:45:27.623Z,10.23
2019-04-22T09:46:41.287Z,6.80
2019-04-22T09:49:03.450Z,9.93
2019-04-22T09:50:03.365Z,8.03
2019-04-22T09:51:09.817Z,9.47
2019-04-22T09:52:15.016Z,10.17
2019-04-22T09:53:25.343Z,9.37
2019-04-22T09:54:39.444Z,9.90
2019-04-22T09:55:34.122Z,10.00
2019-04-22T09:56:47.604Z,36.87
2019-04-22T09:57:52.331Z,18.45
2019-04-22T09:58:55.717Z,16.73
2019-04-22T10:01:25.404Z,11.23
2019-04-22T10:02:38.960Z,31.30
2019-04-22T10:03:32.109Z,10.47
2019-04-22T10:04:39.893Z,12.60
2019-04-22T10:05:52.199Z,13.00
2019-04-22T10:06:50.532Z,10.33
2019-04-22T10:07:59.495Z,17.50
2019-04-22T10:09:26.052Z,8.48
2019-04-22T10:10:26.837Z,12.00
2019-04-22T10:11:31.574Z,12.60
2019-04-22T10:12:32.441Z,9.13
2019-04-22T10:13:45.529Z,11.80
2019-04-22T10:14:45.659Z,12.20
2019-04-22T10:15:49.643Z,9.63
2019-04-22T10:16:54.595Z,8.50
2019-04-22T10:18:04.821Z,9.53
2019-04-22T10:19:12.412Z,11.40
2019-04-22T10:20:18.091Z,8.08
2019-04-22T10:21:35.572Z,15.07
2019-04-22T10:22:33.840Z,11.83
2019-04-22T10:23:41.678Z,8.13
2019-04-22T10:24:45.335Z,10.77
2019-04-22T10:25:54.101Z,7.63
2019-04-22T10:26:59.978Z,9.73
2019-04-22T10:28:09.217Z,8.93
2019-04-22T10:29:21.656Z,8.33
2019-04-22T10:30:27.336Z,8.40
2019-04-22T10:31:31.127Z,10.57
2019-04-22T10:32:29.120Z,9.90
2019-04-22T10:33:33.880Z,12.47
2019-04-22T10:34:32.903Z,7.70
2019-04-22T10:35:32.154Z,12.97
2019-04-22T10:36:37.718Z,12.23
2019-04-22T10:37:43.026Z,9.00
2019-04-22T10:38:48.675Z,8.63
2019-04-22T10:39:58.794Z,8.83
2019-04-22T10:41:00.921Z,9.30
2019-04-22T10:42:07.028Z,6.77
2019-04-22T10:43:12.432Z,7.77
2019-04-22T10:44:17.558Z,9.73
2019-04-22T10:45:23.975Z,7.90
2019-04-22T10:46:30.540Z,10.80
2019-04-22T10:47:36.094Z,9.93
2019-04-22T10:48:42.135Z,7.10
2019-04-22T10:49:48.619Z,8.73
2019-04-22T10:50:54.785Z,8.90
2019-04-22T10:52:00.430Z,9.73
2019-04-22T10:53:05.793Z,6.33
2019-04-22T10:54:11.482Z,8.77
2019-04-22T10:55:17.280Z,8.23
2019-04-22T10:56:23.053Z,8.00
2019-04-22T10:57:28.140Z,6.67
2019-04-22T10:58:34.847Z,8.40
2019-04-22T10:59:40.723Z,7.30
2019-04-22T11:00:47.366Z,6.90
2019-04-22T11:01:52.721Z,5.77
2019-04-22T11:02:58.189Z,8.30
2019-04-22T11:04:03.501Z,9.37
2019-04-22T11:05:10.308Z,6.97
2019-04-22T11:06:17.016Z,7.20
2019-04-22T11:07:30.842Z,6.50
2019-04-22T11:08:40.211Z,11.03
2019-04-22T11:09:47.631Z,8.13
2019-04-22T11:11:00.400Z,8.37
2019-04-22T11:11:59.671Z,8.50
2019-04-22T11:12:59.026Z,10.00
2019-04-22T11:14:06.975Z,11.63
2019-04-22T11:15:11.973Z,8.83
2019-04-22T11:16:17.563Z,8.20
2019-04-22T11:17:23.987Z,7.13
2019-04-22T11:18:29.579Z,8.00
2019-04-22T11:19:35.322Z,5.30
2019-04-22T11:20:41.900Z,8.30
2019-04-22T11:21:59.889Z,7.20
2019-04-22T11:22:54.000Z,11.03
2019-04-22T11:24:00.616Z,6.83
2019-04-22T11:25:07.708Z,6.60
2019-04-22T11:26:13.035Z,6.33
2019-04-22T11:27:18.890Z,6.43
2019-04-22T11:28:25.558Z,6.33
2019-04-22T11:29:31.786Z,7.53
2019-04-22T11:30:38.758Z,6.57
2019-04-22T11:31:44.419Z,9.03
2019-04-22T11:32:50.706Z,6.57
2019-04-22T11:33:56.655Z,7.83
2019-04-22T11:35:01.707Z,8.20
2019-04-22T11:36:08.057Z,7.27
2019-04-22T11:37:14.686Z,7.90
2019-04-22T11:38:20.125Z,7.27
2019-04-22T11:39:26.296Z,6.60
2019-04-22T11:40:38.464Z,11.10
2019-04-22T11:41:40.294Z,7.00
2019-04-22T11:42:46.115Z,5.70
2019-04-22T11:43:51.596Z,7.03
2019-04-22T11:44:57.149Z,5.73
2019-04-22T11:46:03.306Z,5.90
2019-04-22T11:47:09.673Z,6.80
2019-04-22T11:48:15.497Z,6.70
2019-04-22T11:49:21.865Z,11.03
2019-04-22T11:50:28.174Z,7.03
2019-04-22T11:51:33.867Z,5.57
2019-04-22T11:52:40.509Z,7.27
2019-04-22T11:53:46.868Z,8.00
2019-04-22T11:54:52.929Z,6.50
2019-04-22T11:55:58.474Z,9.70
2019-04-22T11:57:05.483Z,6.00
2019-04-22T11:58:12.696Z,6.37
2019-04-22T11:59:18.615Z,5.77
2019-04-22T12:00:32.742Z,7.77
2019-04-22T12:01:39.005Z,5.97
2019-04-22T12:02:44.908Z,10.37
2019-04-22T12:03:51.691Z,13.60
2019-04-22T12:04:58.189Z,6.03
2019-04-22T12:06:04.055Z,8.97
2019-04-22T12:07:10.822Z,6.33
2019-04-22T12:08:17.253Z,6.50
2019-04-22T12:09:23.823Z,5.83
2019-04-22T12:10:39.039Z,5.37
2019-04-22T12:11:38.539Z,8.10
2019-04-22T12:12:45.918Z,5.97
2019-04-22T12:13:51.772Z,6.43
2019-04-22T12:14:58.445Z,6.70
2019-04-22T12:16:05.331Z,7.80
2019-04-22T12:17:11.243Z,5.67
2019-04-22T12:18:17.321Z,7.80
2019-04-22T12:19:23.240Z,5.03
2019-04-22T12:20:29.386Z,6.33
2019-04-22T12:21:35.189Z,7.70
2019-04-22T12:22:41.029Z,5.80
2019-04-22T12:23:48.688Z,6.83
2019-04-22T12:24:54.511Z,8.20
2019-04-22T12:27:11.750Z,12.13
2019-04-22T12:28:17.219Z,13.00
2019-04-22T12:29:22.822Z,6.13
2019-04-22T12:30:28.205Z,7.60
2019-04-22T12:31:35.745Z,6.00
2019-04-22T12:32:41.228Z,5.83
2019-04-22T12:33:47.773Z,6.90
2019-04-22T12:34:53.393Z,8.50
2019-04-22T12:35:58.571Z,5.03
2019-04-22T12:37:04.623Z,5.77
2019-04-22T12:38:11.134Z,6.20
2019-04-22T12:39:17.884Z,6.90
2019-04-22T12:40:34.132Z,6.50
2019-04-22T12:41:31.103Z,4.90
2019-04-22T12:42:37.555Z,5.67
2019-04-22T12:43:43.276Z,8.80
2019-04-22T12:44:49.633Z,5.63
2019-04-22T12:45:56.292Z,7.77
2019-04-22T12:47:03.629Z,6.53
2019-04-22T12:48:10.114Z,5.90
2019-04-22T12:49:16.350Z,4.90
2019-04-22T12:50:29.218Z,5.73
2019-04-22T12:51:31.181Z,9.03
2019-04-22T12:52:45.041Z,7.80
2019-04-22T12:53:44.539Z,5.23
2019-04-22T12:54:51.124Z,6.60
2019-04-22T12:55:57.412Z,6.17
2019-04-22T12:57:03.983Z,5.30
2019-04-22T12:58:09.732Z,4.70
2019-04-22T12:59:14.861Z,5.17
2019-04-22T13:00:20.630Z,6.23
2019-04-22T13:01:26.838Z,7.83
2019-04-22T13:02:33.160Z,5.10
2019-04-22T13:03:40.197Z,5.20
2019-04-22T13:04:46.022Z,6.53
2019-04-22T13:05:51.457Z,7.10
2019-04-22T13:06:57.684Z,7.90
2019-04-22T13:08:02.800Z,6.53
2019-04-22T13:09:08.812Z,5.73
2019-04-22T13:10:15.638Z,4.90
2019-04-22T13:11:26.963Z,5.23
2019-04-22T13:12:28.962Z,5.53
2019-04-22T13:13:34.602Z,6.70
2019-04-22T13:14:41.030Z,5.77
2019-04-22T13:15:46.806Z,6.30
2019-04-22T13:16:53.615Z,4.80
2019-04-22T13:18:10.000Z,6.27
2019-04-22T13:19:11.323Z,5.80
2019-04-22T13:20:16.398Z,6.17
2019-04-22T13:21:20.889Z,7.63
2019-04-22T13:22:27.044Z,9.97
2019-04-22T13:23:33.889Z,5.27
2019-04-22T13:24:39.685Z,4.47
2019-04-22T13:25:44.968Z,5.10
2019-04-22T13:26:50.659Z,6.27
2019-04-22T13:27:57.398Z,5.27
2019-04-22T13:29:03.204Z,5.30
2019-04-22T13:30:12.472Z,5.37
2019-04-22T13:31:20.764Z,5.90
2019-04-22T13:32:25.014Z,5.33
2019-04-22T13:33:30.661Z,6.70
2019-04-22T13:34:42.312Z,7.90
2019-04-22T13:35:43.824Z,7.33
2019-04-22T13:36:50.333Z,6.70
2019-04-22T13:37:57.206Z,5.17
2019-04-22T13:39:02.966Z,5.23
2019-04-22T13:40:10.937Z,4.23
2019-04-22T13:41:26.429Z,5.00
2019-04-22T13:42:24.071Z,5.13
2019-04-22T13:43:31.120Z,5.37
2019-04-22T13:44:37.630Z,5.10
2019-04-22T13:45:43.733Z,4.57
2019-04-22T13:47:11.580Z,6.67
2019-04-22T13:48:11.543Z,5.80
2019-04-22T13:49:35.357Z,6.20
2019-04-22T13:50:47.627Z,5.73
2019-04-22T13:53:00.538Z,5.23
2019-04-22T13:54:06.514Z,7.07
2019-04-22T13:55:01.866Z,6.97
2019-04-22T13:56:07.543Z,4.77
2019-04-22T13:57:10.300Z,5.43
2019-04-22T13:58:12.341Z,4.80
2019-04-22T13:59:13.574Z,5.10
2019-04-22T14:00:14.591Z,4.97
2019-04-22T14:01:22.785Z,6.37
2019-04-22T14:02:37.995Z,6.50
2019-04-22T14:03:54.622Z,9.63
2019-04-22T14:05:00.916Z,6.73
2019-04-22T14:06:06.957Z,5.73
2019-04-22T14:07:12.720Z,6.00
2019-04-22T14:08:18.498Z,5.30
2019-04-22T14:09:26.431Z,5.77
2019-04-22T14:10:32.147Z,6.07
2019-04-22T14:11:48.844Z,8.37
2019-04-22T14:12:44.630Z,8.53
2019-04-22T14:13:50.245Z,6.30
2019-04-22T14:14:56.363Z,5.47
2019-04-22T14:16:02.081Z,4.83
2019-04-22T14:17:07.285Z,5.00
2019-04-22T14:18:12.940Z,5.10
2019-04-22T14:19:18.513Z,6.80
2019-04-22T14:20:27.748Z,5.77
2019-04-22T14:21:32.676Z,8.83
2019-04-22T14:22:38.854Z,6.70
2019-04-22T14:23:44.774Z,5.53
2019-04-22T14:24:50.461Z,4.93
2019-04-22T14:25:56.678Z,5.07
2019-04-22T14:27:19.246Z,5.50
2019-04-22T14:28:17.287Z,7.80
2019-04-22T14:29:19.690Z,4.80
2019-04-22T14:30:26.315Z,5.13
2019-04-22T14:31:32.846Z,5.50
2019-04-22T14:32:39.601Z,4.63
2019-04-22T14:33:46.511Z,6.40
2019-04-22T14:34:51.381Z,4.77
2019-04-22T14:35:56.463Z,5.03
2019-04-22T14:37:01.803Z,4.57
2019-04-22T14:38:08.387Z,5.60
2019-04-22T14:39:13.505Z,5.03
2019-04-22T14:40:20.747Z,4.73
2019-04-22T14:41:40.690Z,4.50
2019-04-22T14:42:52.084Z,5.80
2019-04-22T14:44:23.316Z,5.87
2019-04-22T14:46:34.992Z,5.03
2019-04-22T14:47:25.940Z,5.10
2019-04-22T14:48:37.352Z,4.17
2019-04-22T14:49:36.871Z,5.67
2019-04-22T14:50:46.762Z,5.00
2019-04-22T14:51:53.364Z,5.97
2019-04-22T14:52:58.161Z,6.33
2019-04-22T14:54:01.452Z,7.80
2019-04-22T14:55:03.001Z,5.07
2019-04-22T14:55:58.083Z,4.83
2019-04-22T14:57:03.496Z,3.93
2019-04-22T14:58:09.043Z,4.40
2019-04-22T14:59:14.604Z,7.20
2019-04-22T15:00:23.968Z,4.30
2019-04-22T15:01:29.021Z,4.97
2019-04-22T15:02:34.364Z,5.67
2019-04-22T15:03:41.987Z,4.80
2019-04-22T15:04:46.234Z,4.33
2019-04-22T15:05:52.285Z,7.57
2019-04-22T15:06:59.058Z,4.07
2019-04-22T15:08:04.203Z,4.47
2019-04-22T15:09:10.296Z,3.93
2019-04-22T15:10:17.937Z,5.53
2019-04-22T15:11:23.274Z,6.27
2019-04-22T15:12:36.687Z,6.43
2019-04-22T15:13:35.653Z,4.90
2019-04-22T15:14:41.685Z,5.17
2019-04-22T15:16:15.959Z,4.40
2019-04-22T15:17:49.563Z,4.97
2019-04-22T15:19:07.481Z,5.57
2019-04-22T15:20:34.038Z,5.30
2019-04-22T15:21:39.098Z,4.83
2019-04-22T15:22:44.378Z,5.47
2019-04-22T15:23:50.776Z,4.93
2019-04-22T15:24:56.696Z,5.93
2019-04-22T15:26:02.268Z,4.30
2019-04-22T15:27:08.740Z,4.70
2019-04-22T15:28:15.254Z,6.70
2019-04-22T15:29:21.120Z,5.10
2019-04-22T15:30:27.614Z,4.37
2019-04-22T15:31:33.281Z,6.53
2019-04-22T15:32:39.094Z,6.97
2019-04-22T15:33:48.019Z,6.67
2019-04-22T15:34:51.267Z,8.90
2019-04-22T15:35:56.340Z,4.87
2019-04-22T15:37:02.314Z,4.67
2019-04-22T15:38:08.935Z,4.30
2019-04-22T15:39:15.541Z,7.17
2019-04-22T15:40:21.006Z,4.10
2019-04-22T15:41:25.924Z,4.60
2019-04-22T15:42:37.352Z,4.43
2019-04-22T15:43:39.444Z,4.03
2019-04-22T15:44:46.118Z,6.60
2019-04-22T15:45:52.746Z,4.40
2019-04-22T15:46:58.171Z,5.00
2019-04-22T15:48:04.144Z,6.10
2019-04-22T15:49:09.908Z,8.70
2019-04-22T15:50:16.180Z,5.13
2019-04-22T15:51:22.576Z,4.00
2019-04-22T15:52:33.543Z,4.40
2019-04-22T15:53:35.782Z,8.17
2019-04-22T15:54:41.589Z,4.70
2019-04-22T15:55:47.107Z,4.53
2019-04-22T15:56:52.695Z,6.20
2019-04-22T15:57:57.737Z,6.63
2019-04-22T15:59:17.198Z,5.70
2019-04-22T16:00:24.176Z,4.47
2019-04-22T16:01:23.958Z,7.60
2019-04-22T16:02:23.845Z,4.57
2019-04-22T16:03:29.143Z,6.17
2019-04-22T16:04:34.700Z,6.37
2019-04-22T16:05:39.886Z,5.13
2019-04-22T16:06:45.113Z,5.60
2019-04-22T16:07:50.694Z,4.67
2019-04-22T16:08:56.092Z,5.00
2019-04-22T16:10:01.815Z,6.63
2019-04-22T16:11:07.111Z,8.83
2019-04-22T16:12:20.001Z,5.83
2019-04-22T16:13:24.653Z,4.93
2019-04-22T16:14:32.901Z,6.33
2019-04-22T16:15:34.330Z,7.67
2019-04-22T16:16:40.673Z,4.73
2019-04-22T16:17:46.698Z,7.53